createdAt,value
2022-10-01T00:00:00.410Z,4.87
2022-10-01T00:05:03.732Z,4.57
2022-10-01T00:10:11.020Z,5.40
2022-10-01T00:15:16.097Z,5.50
2022-10-01T00:20:19.844Z,5.70
2022-10-01T00:25:25.456Z,9.35
2022-10-01T00:30:28.885Z,8.10
2022-10-01T00:35:32.158Z,6.95
2022-10-01T00:40:36.825Z,4.90
2022-10-01T00:45:40.140Z,4.97
2022-10-01T00:50:44.281Z,5.67
2022-10-01T00:55:55.259Z,5.20
2022-10-01T01:00:58.853Z,6.60
2022-10-01T01:06:03.472Z,7.80
2022-10-01T01:11:17.317Z,6.77
2022-10-01T01:16:27.722Z,6.43
2022-10-01T01:21:36.014Z,7.35
2022-10-01T01:26:54.294Z,7.63
2022-10-01T01:32:03.514Z,8.88
2022-10-01T01:37:12.522Z,10.25
2022-10-01T01:42:23.045Z,10.20
2022-10-01T01:47:30.559Z,11.93
2022-10-01T01:52:34.489Z,8.32
2022-10-01T01:57:41.520Z,7.22
2022-10-01T02:02:53.226Z,10.85
2022-10-01T02:08:12.816Z,9.68
2022-10-01T02:13:24.273Z,11.43
2022-10-01T02:18:35.167Z,11.60
2022-10-01T02:23:44.291Z,11.55
2022-10-01T02:28:49.452Z,11.23
2022-10-01T02:33:56.094Z,11.05
2022-10-01T02:39:00.086Z,12.23
2022-10-01T02:44:07.488Z,11.38
2022-10-01T02:49:13.397Z,11.45
2022-10-01T02:54:23.855Z,10.38
2022-10-01T02:59:27.305Z,11.63
2022-10-01T03:04:32.148Z,10.68
2022-10-01T03:09:36.779Z,11.25
2022-10-01T03:14:40.401Z,10.43
2022-10-01T03:19:45.009Z,11.48
2022-10-01T03:24:48.254Z,10.87
2022-10-01T03:29:51.892Z,11.50
2022-10-01T03:34:56.496Z,11.10
2022-10-01T03:39:59.742Z,10.77
2022-10-01T03:45:03.163Z,11.87
2022-10-01T03:50:09.279Z,10.77
2022-10-01T03:55:12.758Z,11.68
2022-10-01T04:00:16.359Z,12.05
2022-10-01T04:05:21.010Z,13.23
2022-10-01T04:10:24.278Z,11.88
2022-10-01T04:15:28.130Z,11.83
2022-10-01T04:20:33.654Z,12.03
2022-10-01T04:25:36.966Z,13.02
2022-10-01T04:30:43.054Z,13.20
2022-10-01T04:35:47.735Z,12.85
2022-10-01T04:40:51.250Z,12.93
2022-10-01T04:45:54.739Z,13.45
2022-10-01T04:50:59.361Z,13.93
2022-10-01T04:56:02.994Z,14.10
2022-10-01T05:01:06.294Z,13.88
2022-10-01T05:06:10.985Z,14.23
2022-10-01T05:11:14.217Z,15.25
2022-10-01T05:16:17.528Z,13.30
2022-10-01T05:21:22.371Z,12.75
2022-10-01T05:26:25.637Z,14.17
2022-10-01T05:31:28.924Z,14.27
2022-10-01T05:36:33.603Z,16.40
2022-10-01T05:41:41.076Z,19.95
2022-10-01T05:46:44.740Z,20.90
2022-10-01T05:51:49.744Z,19.55
2022-10-01T05:56:53.613Z,17.90
2022-10-01T06:01:57.004Z,25.80
2022-10-01T06:07:01.749Z,32.80
2022-10-01T06:12:10.687Z,23.40
2022-10-01T06:17:13.930Z,16.55
2022-10-01T06:22:18.601Z,11.75
2022-10-01T06:27:21.903Z,11.13
2022-10-01T06:32:25.185Z,11.38
2022-10-01T06:37:29.880Z,10.73
2022-10-01T06:42:33.193Z,11.50
2022-10-01T06:47:38.031Z,10.40
2022-10-01T06:52:51.434Z,9.00
2022-10-01T06:57:56.912Z,9.30
2022-10-01T07:03:00.855Z,9.60
2022-10-01T07:08:05.625Z,9.50
2022-10-01T07:13:09.710Z,8.77
2022-10-01T07:18:13.976Z,9.35
2022-10-01T07:23:18.972Z,8.57
2022-10-01T07:28:25.767Z,9.25
2022-10-01T07:33:29.188Z,9.43
2022-10-01T07:38:34.509Z,10.25
2022-10-01T07:43:39.432Z,8.98
2022-10-01T07:48:46.370Z,12.65
2022-10-01T07:53:51.028Z,9.77
2022-10-01T07:58:56.414Z,12.48
2022-10-01T08:03:59.729Z,7.18
2022-10-01T08:09:04.353Z,6.35
2022-10-01T08:14:07.669Z,4.75
2022-10-01T08:19:12.235Z,5.13
2022-10-01T08:24:17.885Z,4.40
2022-10-01T08:29:21.206Z,3.90
2022-10-01T08:34:25.355Z,3.75
2022-10-01T08:39:31.083Z,2.85
2022-10-01T08:44:41.289Z,3.35
2022-10-01T08:49:49.004Z,3.90
2022-10-01T08:54:59.054Z,3.85
2022-10-01T09:00:07.909Z,3.00
2022-10-01T09:05:21.755Z,2.15
2022-10-01T09:10:36.601Z,2.95
2022-10-01T09:15:48.361Z,2.45
2022-10-01T09:20:56.149Z,2.47
2022-10-01T09:26:01.797Z,2.03
2022-10-01T09:31:13.527Z,2.65
2022-10-01T09:36:24.488Z,3.33
2022-10-01T09:41:31.428Z,3.50
2022-10-01T09:46:35.677Z,2.60
2022-10-01T09:51:43.902Z,0.98
2022-10-01T09:56:54.095Z,1.00
2022-10-01T10:02:00.171Z,0.95
2022-10-01T10:07:06.139Z,0.70
2022-10-01T10:12:27.937Z,1.17
2022-10-01T10:17:31.284Z,1.98
2022-10-01T10:22:34.560Z,1.80
2022-10-01T10:27:39.243Z,1.33
2022-10-01T10:32:44.179Z,0.93
2022-10-01T10:37:51.011Z,1.95
2022-10-01T10:42:57.311Z,2.20
2022-10-01T10:48:02.788Z,1.73
2022-10-01T10:53:22.383Z,1.33
2022-10-01T10:58:29.246Z,2.90
2022-10-01T11:03:34.435Z,2.80
2022-10-01T11:08:38.298Z,3.05
2022-10-01T11:14:07.945Z,1.70
2022-10-01T11:19:33.519Z,3.63
2022-10-01T11:25:02.133Z,2.90
2022-10-01T11:30:11.943Z,2.90
2022-10-01T11:35:51.161Z,2.97
2022-10-01T11:41:02.247Z,1.63
2022-10-01T11:46:13.525Z,2.07
2022-10-01T11:51:21.953Z,2.20
2022-10-01T11:56:48.437Z,2.35
2022-10-01T12:01:59.559Z,2.47
2022-10-01T12:07:12.453Z,2.10
2022-10-01T12:12:20.470Z,3.43
2022-10-01T12:17:29.735Z,1.50
2022-10-01T12:22:36.819Z,2.27
2022-10-01T12:27:59.903Z,1.10
2022-10-01T12:33:22.909Z,1.33
2022-10-01T12:38:38.413Z,1.95
2022-10-01T12:44:11.088Z,1.48
2022-10-01T12:49:25.162Z,1.73
2022-10-01T12:54:55.538Z,2.20
2022-10-01T13:00:08.051Z,1.10
2022-10-01T13:05:24.927Z,1.95
2022-10-01T13:10:48.829Z,1.63
2022-10-01T13:16:00.063Z,1.60
2022-10-01T13:21:10.234Z,2.20
2022-10-01T13:26:18.407Z,1.65
2022-10-01T13:31:35.175Z,1.57
2022-10-01T13:36:40.104Z,1.27
2022-10-01T13:41:43.891Z,1.70
2022-10-01T13:46:54.191Z,1.03
2022-10-01T13:51:59.909Z,1.25
2022-10-01T13:57:10.092Z,1.57
2022-10-01T14:02:32.090Z,1.43
2022-10-01T14:07:39.310Z,1.07
2022-10-01T14:13:02.825Z,1.02
2022-10-01T14:18:11.928Z,0.70
2022-10-01T14:23:19.876Z,1.60
2022-10-01T14:28:36.044Z,1.15
2022-10-01T14:34:00.530Z,1.90
2022-10-01T14:39:16.051Z,2.05
2022-10-01T14:44:27.655Z,1.00
2022-10-01T14:49:32.808Z,1.20
2022-10-01T14:54:44.853Z,1.67
2022-10-01T14:59:49.497Z,1.05
2022-10-01T15:04:55.262Z,1.67
2022-10-01T15:10:09.282Z,1.17
2022-10-01T15:15:21.383Z,1.95
2022-10-01T15:20:27.590Z,2.72
2022-10-01T15:25:33.339Z,1.48
2022-10-01T15:30:38.755Z,3.08
2022-10-01T15:35:43.339Z,1.40
2022-10-01T15:41:04.965Z,1.50
2022-10-01T15:46:21.594Z,1.02
2022-10-01T15:51:27.614Z,1.73
2022-10-01T15:56:33.708Z,1.67
2022-10-01T16:01:42.067Z,2.10
2022-10-01T16:06:49.416Z,1.90
2022-10-01T16:11:57.218Z,3.30
2022-10-01T16:17:30.831Z,2.13
2022-10-01T16:22:38.004Z,2.10
2022-10-01T16:27:50.149Z,1.80
2022-10-01T16:32:54.940Z,2.50
2022-10-01T16:37:59.137Z,1.75
2022-10-01T16:43:04.388Z,1.67
2022-10-01T16:48:15.680Z,1.80
2022-10-01T16:53:19.906Z,2.00
2022-10-01T16:58:24.589Z,1.52
2022-10-01T17:03:27.979Z,2.17
2022-10-01T17:08:32.829Z,1.40
2022-10-01T17:13:38.078Z,1.50
2022-10-01T17:18:44.201Z,1.92
2022-10-01T17:23:58.079Z,1.30
2022-10-01T17:29:01.757Z,1.27
2022-10-01T17:34:07.431Z,4.95
2022-10-01T17:39:12.459Z,2.90
2022-10-01T17:44:15.901Z,2.42
2022-10-01T17:49:19.428Z,1.40
2022-10-01T17:54:24.444Z,1.70
2022-10-01T17:59:27.761Z,0.98
2022-10-01T18:04:30.997Z,1.23
2022-10-01T18:09:36.956Z,0.90
2022-10-01T18:14:41.373Z,1.02
2022-10-01T18:19:53.230Z,1.00
2022-10-01T18:24:58.815Z,1.40
2022-10-01T18:30:02.664Z,1.58
2022-10-01T18:35:15.521Z,0.93
2022-10-01T18:40:22.773Z,0.98
2022-10-01T18:45:45.576Z,1.17
2022-10-01T18:50:57.135Z,1.20
2022-10-01T18:56:24.848Z,0.60
2022-10-01T19:01:36.105Z,1.13
2022-10-01T19:07:09.440Z,0.80
2022-10-01T19:12:30.034Z,1.00
2022-10-01T19:17:52.900Z,1.10
2022-10-01T19:23:15.610Z,1.03
2022-10-01T19:28:35.677Z,1.40
2022-10-01T19:33:45.654Z,0.90
2022-10-01T19:38:52.016Z,0.80
2022-10-01T19:44:01.129Z,1.08
2022-10-01T19:49:14.353Z,1.48
2022-10-01T19:54:19.471Z,0.90
2022-10-01T19:59:24.705Z,0.50
2022-10-01T20:04:35.278Z,0.83
2022-10-01T20:09:45.804Z,0.77
2022-10-01T20:15:11.944Z,1.00
2022-10-01T20:20:23.341Z,1.23
2022-10-01T20:25:32.146Z,1.00
2022-10-01T20:30:44.912Z,1.40
2022-10-01T20:35:57.643Z,1.30
2022-10-01T20:41:06.351Z,1.20
2022-10-01T20:46:18.045Z,1.20
2022-10-01T20:51:29.503Z,1.63
2022-10-01T20:56:38.561Z,0.73
2022-10-01T21:02:02.419Z,0.90
2022-10-01T21:07:11.776Z,0.60
2022-10-01T21:12:21.351Z,0.90
2022-10-01T21:17:41.063Z,0.90
2022-10-01T21:22:57.578Z,1.20
2022-10-01T21:28:13.184Z,0.90
2022-10-01T21:33:26.741Z,1.00
2022-10-01T21:38:40.101Z,1.00
2022-10-01T21:43:56.634Z,1.30
2022-10-01T21:49:09.719Z,1.90
2022-10-01T21:54:44.732Z,2.40
2022-10-01T22:00:11.257Z,1.60
2022-10-01T22:05:28.207Z,1.00
2022-10-01T22:10:38.313Z,0.90
2022-10-01T22:15:44.331Z,1.02
2022-10-01T22:20:49.681Z,1.40
2022-10-01T22:25:58.375Z,0.95
2022-10-01T22:31:05.897Z,0.70
2022-10-01T22:36:14.699Z,1.00
2022-10-01T22:41:24.939Z,0.90
2022-10-01T22:46:55.716Z,1.00
2022-10-01T22:52:10.886Z,0.90
2022-10-01T22:57:31.280Z,1.00
2022-10-01T23:02:39.472Z,0.80
2022-10-01T23:07:53.239Z,0.90
2022-10-01T23:13:10.746Z,0.80
2022-10-01T23:18:25.237Z,0.90
2022-10-01T23:23:33.377Z,0.95
2022-10-01T23:28:45.913Z,0.95
2022-10-01T23:34:03.475Z,1.25
2022-10-01T23:39:29.085Z,0.90
2022-10-01T23:44:38.177Z,0.70
2022-10-01T23:49:45.620Z,1.13
2022-10-01T23:54:56.618Z,1.00
